Data for 05/27/2005

Time Sea-Level Adjusted Pressure Absolute Pressure Temperature Relative Humidity Dew Point   
(mb) (inHg) (mb) (inHg) (C) (F) (%) (C) (F)
00:05 1025 30.27 855 25.25 8.1 46.5 53 -0.9 30.3
00:10 1025 30.27 855 25.25 7.9 46.1 54 -0.9 30.3
00:15 1025 30.27 855 25.25 7.6 45.6 55 -0.9 30.3
00:20 1025 30.27 855 25.25 7.8 46.1 52 -1.5 29.3
00:25 1025 30.27 855 25.25 7.9 46.3 52 -1.3 29.7
00:30 1025 30.27 855 25.25 7.6 45.7 57 -0.4 31.2
00:35 1025 30.27 855 25.25 7.3 45.2 57 -0.7 30.7
00:40 1025 30.27 855 25.25 7.3 45.1 55 -1.1 30
00:45 1025 30.27 855 25.25 7.2 45 56 -0.9 30.3
00:50 1025 30.27 855 25.25 7.3 45.1 56 -0.8 30.6
00:55 1025 30.27 854 25.22 7.2 45 55 -1.2 29.8
01:00 1025 30.27 854 25.22 7.1 44.8 56 -1.1 30
01:05 1025 30.27 854 25.22 6.9 44.3 57 -1 30.3
01:10 1025 30.27 855 25.25 6.6 43.9 58 -1 30.2
01:15 1025 30.27 855 25.25 6.6 43.8 56 -1.5 29.3
01:20 1025 30.27 855 25.25 6.7 44 54 -2 28.5
01:25 1025 30.27 855 25.25 7.1 44.8 53 -1.7 28.9
01:30 1025 30.27 855 25.25 7 44.6 54 -1.6 29.1
01:35 1025 30.27 855 25.25 6.7 44.1 55 -1.7 29
01:40 1025 30.27 855 25.25 6.4 43.4 56 -1.9 28.7
01:45 1025 30.27 854 25.22 6.1 43 57 -1.8 28.7
01:50 1025 30.27 854 25.22 6.1 42.9 57 -1.8 28.7
01:55 1025 30.27 855 25.25 5.8 42.5 57 -2 28.4
02:00 1025 30.27 855 25.25 6 42.8 56 -2.1 28.1
02:05 1025 30.27 855 25.25 5.9 42.7 57 -2 28.4
02:10 1025 30.27 855 25.25 5.7 42.2 58 -1.8 28.7
02:15 1025 30.27 855 25.25 5.4 41.7 60 -1.7 28.9
02:20 1025 30.27 855 25.25 5 40.9 61 -1.8 28.7
02:25 1025 30.27 854 25.22 5.2 41.3 60 -2 28.4
02:30 1025 30.27 854 25.22 5.3 41.5 60 -1.9 28.6
02:35 1025 30.27 855 25.25 5.1 41.1 61 -1.7 28.9
02:40 1025 30.27 854 25.22 4.8 40.7 61 -2.1 28.2
02:45 1025 30.27 854 25.22 4.9 40.8 60 -2.2 28
02:50 1025 30.27 854 25.22 4.8 40.7 61 -2.1 28.1
02:55 1025 30.27 854 25.22 5 40.9 58 -2.5 27.5
03:00 1025 30.27 854 25.22 5 40.9 59 -2.3 27.9
03:05 1025 30.27 854 25.22 4.7 40.5 61 -2.1 28.2
03:10 1025 30.27 854 25.22 4.8 40.7 60 -2.3 27.8
03:15 1025 30.27 854 25.22 4.7 40.5 61 -2.1 28.3
03:20 1025 30.27 854 25.22 4.4 39.9 62 -2.3 27.8
03:25 1025 30.27 854 25.22 4.5 40 60 -2.6 27.3
03:30 1025 30.27 854 25.22 4.7 40.5 59 -2.6 27.4
03:35 1025 30.27 854 25.22 4.9 40.8 59 -2.5 27.5
03:40 1025 30.27 854 25.22 4.9 40.8 58 -2.6 27.3
03:45 1025 30.27 854 25.22 5 40.9 58 -2.6 27.4
03:50 1025 30.27 854 25.22 4.8 40.6 59 -2.4 27.6
03:55 1025 30.27 854 25.22 4.4 39.9 62 -2.3 27.9
04:00 1025 30.27 854 25.22 4 39.2 63 -2.3 27.9
04:05 1025 30.27 854 25.22 3.8 38.9 63 -2.5 27.4
04:10 1025 30.27 854 25.22 3.8 38.9 61 -3 26.6
04:15 1025 30.27 854 25.22 4.2 39.5 59 -3.1 26.3
04:20 1025 30.27 854 25.22 4.2 39.5 59 -3.2 26.3
04:25 1025 30.27 854 25.22 4.3 39.7 57 -3.3 26
04:30 1025 30.27 854 25.22 4.4 39.9 57 -3.5 25.8
04:35 1025 30.27 854 25.22 4.4 40 56 -3.5 25.8
04:40 1025 30.27 854 25.22 4.5 40.1 57 -3.4 25.9
04:45 1025 30.27 854 25.22 4.5 40.2 57 -3.3 26.1
04:50 1025 30.27 854 25.22 4.9 40.8 56 -3.1 26.3
04:55 1025 30.27 854 25.22 5 41 56 -3.1 26.5
05:00 1025 30.27 854 25.22 4.9 40.8 58 -2.7 27.1
05:05 1025 30.27 854 25.22 4.5 40.2 59 -2.8 27
05:10 1025 30.27 854 25.22 4.4 39.9 59 -2.9 26.8
05:15 1025 30.27 854 25.22 4.4 39.9 61 -2.6 27.4
05:20 1025 30.27 854 25.22 4.3 39.8 62 -2.4 27.7
05:25 1025 30.27 854 25.22 3.8 38.8 64 -2.4 27.7
05:30 1025 30.27 854 25.22 3.9 39 62 -2.7 27.2
05:35 1025 30.27 854 25.22 4.2 39.6 61 -2.7 27.1
05:40 1025 30.27 854 25.22 4.4 39.8 61 -2.5 27.5
05:45 1025 30.27 854 25.22 3.9 38.9 62 -2.7 27.1
05:50 1025 30.27 854 25.22 3.7 38.7 63 -2.7 27.1
05:55 1025 30.27 854 25.22 3.7 38.7 61 -3 26.6
06:00 1025 30.27 854 25.22 3.8 38.8 63 -2.7 27.1
06:05 1025 30.27 854 25.22 3.6 38.6 62 -2.9 26.7
06:10 1025 30.27 854 25.22 3.9 39.1 60 -3.1 26.4
06:15 1025 30.27 854 25.22 4.1 39.4 61 -2.7 27.1
06:20 1025 30.27 854 25.22 3.8 38.8 63 -2.6 27.3
06:25 1025 30.27 854 25.22 3.6 38.5 63 -2.8 26.9
06:30 1025 30.27 854 25.22 3.9 39 61 -3 26.7
06:35 1025 30.27 854 25.22 4.2 39.5 61 -2.8 27
06:40 1025 30.27 854 25.22 4.4 40 60 -2.8 27
06:45 1025 30.27 854 25.22 4.7 40.4 59 -2.7 27.1
06:50 1025 30.27 854 25.22 5 41.1 55 -3.3 26
06:55 1025 30.27 854 25.22 5.3 41.6 56 -2.7 27.2
07:00 1025 30.27 854 25.22 5.4 41.7 56 -2.7 27.1
07:05 1025 30.27 854 25.22 5.5 41.9 56 -2.7 27.2
07:10 1025 30.27 854 25.22 5.7 42.3 56 -2.4 27.6
07:15 1025 30.27 854 25.22 5.8 42.5 56 -2.3 27.8
07:20 1025 30.27 854 25.22 6.2 43.1 55 -2.2 28
07:25 1025 30.27 854 25.22 6.5 43.7 54 -2.2 28.1
07:30 1025 30.27 854 25.22 6.9 44.4 52 -2.2 28
07:35 1025 30.27 854 25.22 7.2 45 52 -1.9 28.5
07:40 1025 30.27 854 25.22 7.4 45.4 52 -1.9 28.6
07:45 1025 30.27 854 25.22 7.6 45.7 50 -2.2 28.1
07:50 1025 30.27 854 25.22 7.9 46.3 50 -1.9 28.6
07:55 1025 30.27 854 25.22 8.4 47 49 -1.8 28.8
08:00 1025 30.27 854 25.22 8.8 47.8 47 -1.8 28.8
08:05 1025 30.27 854 25.22 9.6 49.3 45 -1.7 29
08:10 1025 30.27 854 25.22 10 50.1 43 -1.8 28.8
08:15 1025 30.27 854 25.22 10.5 50.8 42 -2 28.4
08:20 1025 30.27 854 25.22 10.8 51.4 39 -2.6 27.4
08:25 1024 30.24 854 25.22 11.3 52.4 38 -2.4 27.7
08:30 1025 30.27 854 25.22 11.4 52.6 38 -2.3 27.8
08:35 1025 30.27 854 25.22 11.9 53.4 38 -2 28.4
08:40 1024 30.24 854 25.22 11.8 53.3 39 -1.7 29
08:45 1024 30.24 854 25.22 12 53.7 37 -2.2 28
08:50 1024 30.24 854 25.22 12.4 54.3 34 -2.9 26.8
08:55 1024 30.24 854 25.22 12.9 55.2 33 -2.8 27
09:00 1024 30.24 854 25.22 12.4 54.4 33 -3.3 26
09:05 1024 30.24 854 25.22 13.4 56.2 31 -3.2 26.3
09:10 1024 30.24 853 25.19 14.3 57.8 30 -3 26.5
09:15 1024 30.24 853 25.19 14.3 57.7 28 -3.8 25.2
09:20 1024 30.24 853 25.19 13.2 55.7 31 -3.6 25.5
09:25 1024 30.24 853 25.19 13.8 56.9 30 -3.3 26.1
09:30 1024 30.24 853 25.19 14.7 58.5 27 -3.9 25
09:35 1024 30.24 853 25.19 14.6 58.2 29 -3.2 26.3
09:40 1024 30.24 853 25.19 14.1 57.4 29 -3.6 25.6
09:45 1024 30.24 853 25.19 14.7 58.4 26 -4.4 24
09:50 1024 30.24 853 25.19 15.4 59.6 26 -4.1 24.6
09:55 1024 30.24 853 25.19 15.3 59.5 26 -4.2 24.4
10:00 1024 30.24 853 25.19 15.4 59.6 26 -4 24.8
10:05 1024 30.24 853 25.19 15.3 59.6 26 -4 24.8
10:10 1024 30.24 853 25.19 14.5 58 26 -4.5 23.9
10:15 1024 30.24 853 25.19 14.9 58.8 26 -4.6 23.8
10:20 1024 30.24 853 25.19 15.8 60.4 24 -4.5 23.9
10:25 1023 30.21 853 25.19 16.1 61 24 -4.1 24.6
10:30 1023 30.21 853 25.19 16.1 61 25 -3.8 25.2
10:35 1023 30.21 853 25.19 16.3 61.3 25 -3.9 25
10:40 1023 30.21 853 25.19 15.9 60.6 25 -4 24.9
10:45 1023 30.21 852 25.16 15.7 60.3 24 -4.6 23.8
10:50 1023 30.21 852 25.16 16.6 61.9 24 -3.8 25.1
10:55 1023 30.21 852 25.16 17.6 63.6 21 -4.7 23.6
11:00 1023 30.21 852 25.16 17.6 63.6 21 -4.8 23.4
11:05 1023 30.21 852 25.16 17.1 62.8 24 -3.4 25.9
11:10 1023 30.21 852 25.16 16.8 62.3 23 -4.3 24.2
11:15 1023 30.21 852 25.16 17.1 62.8 21 -5.1 22.9
11:20 1023 30.21 852 25.16 16.8 62.2 22 -5.3 22.5
11:25 1023 30.21 852 25.16 17.4 63.3 20 -5.7 21.7
11:30 1023 30.21 852 25.16 17 62.6 23 -4 24.8
11:35 1023 30.21 852 25.16 17.6 63.7 23 -3.9 25.1
11:40 1023 30.21 852 25.16 17.3 63.2 23 -3.6 25.5
11:45 1023 30.21 852 25.16 17.7 63.9 22 -4.4 24
11:50 1023 30.21 852 25.16 18.2 64.8 21 -4.2 24.4
11:55 1023 30.21 852 25.16 17.5 63.4 22 -4.1 24.5
12:00 1023 30.21 852 25.16 17.7 63.9 22 -3.9 25
12:05 1023 30.21 852 25.16 17.8 64 22 -4.4 24.1
12:10 1023 30.21 852 25.16 17 62.7 22 -4.7 23.5
12:15 1023 30.21 852 25.16 17.5 63.5 22 -4.6 23.8
12:20 1023 30.21 852 25.16 18.6 65.4 21 -4.2 24.4
12:25 1022 30.18 852 25.16 19.3 66.8 20 -4.1 24.5
12:30 1022 30.18 852 25.16 19.3 66.7 19 -4.9 23.2
12:35 1022 30.18 851 25.13 18.7 65.6 20 -4.3 24.2
12:40 1022 30.18 851 25.13 18.9 65.9 19 -5.5 22.2
12:45 1022 30.18 851 25.13 18.4 65.1 19 -5.5 22.1
12:50 1022 30.18 851 25.13 18.2 64.7 18 -6.3 20.7
12:55 1022 30.18 851 25.13 18.8 65.8 18 -5.6 21.9
13:00 1022 30.18 851 25.13 17.7 63.9 19 -6.1 21
13:05 1022 30.18 851 25.13 18.2 64.7 15 -8.4 16.9
13:10 1022 30.18 851 25.13 18.8 65.8 14 -9.5 14.8
13:15 1022 30.18 851 25.13 18.8 65.9 14 -8.7 16.3
13:20 1022 30.18 851 25.13 18.4 65.1 15 -8.7 16.4
13:25 1022 30.18 851 25.13 19.1 66.3 14 -8.8 16.2
13:30 1022 30.18 851 25.13 19.2 66.5 14 -9.2 15.4
13:35 1022 30.18 851 25.13 18.8 65.8 13 -9.9 14.3
13:40 1022 30.18 851 25.13 19.8 67.7 13 -8.9 16
13:45 1022 30.18 851 25.13 20.7 69.2 12 -9.3 15.2
13:50 1021 30.15 851 25.13 20.9 69.6 13 -8.9 15.9
13:55 1021 30.15 851 25.13 19.7 67.5 14 -8.7 16.3
14:00 1021 30.15 850 25.1 20.4 68.7 12 -9.7 14.6
14:05 1021 30.15 850 25.1 21.2 70.1 11 -10.9 12.4
14:10 1021 30.15 850 25.1 21.5 70.8 11 -10.2 13.6
14:15 1021 30.15 850 25.1 20.6 69 12 -10 14
14:20 1021 30.15 850 25.1 19.6 67.2 13 -9.9 14.2
14:25 1021 30.15 850 25.1 20.6 69.1 9 -13.1 8.4
14:30 1021 30.15 850 25.1 21.4 70.5 10 -11.8 10.7
14:35 1021 30.15 850 25.1 21.4 70.5 10 -12 10.4
14:40 1021 30.15 850 25.1 21.5 70.6 9 -12 10.4
14:45 1021 30.15 850 25.1 21.4 70.6 11 -10.7 12.8
14:50 1021 30.15 850 25.1 21.5 70.7 10 -11.5 11.3
14:55 1021 30.15 850 25.1 21.6 70.8 10 -11.1 12
15:00 1021 30.15 850 25.1 21.7 71 10 -11.5 11.4
15:05 1021 30.15 850 25.1 21.2 70.2 11 -10.5 13.1
15:10 1021 30.15 850 25.1 20.3 68.5 11 -10.9 12.5
15:15 1021 30.15 850 25.1 21.3 70.4 10 -11.4 11.4
15:20 1021 30.15 850 25.1 21.7 71.1 11 -10.3 13.4
15:25 1021 30.15 850 25.1 22 71.7 10 -10.5 13.1
15:30 1020 30.12 850 25.1 22.4 72.2 11 -9.2 15.4
15:35 1020 30.12 850 25.1 21.7 71 10 -10.6 12.9
15:40 1020 30.12 850 25.1 21 69.8 11 -10.6 12.9
15:45 1020 30.12 850 25.1 20.5 68.8 11 -10.5 13.1
15:50 1020 30.12 849 25.07 21 69.8 12 -9.2 15.4
15:55 1020 30.12 849 25.07 22.1 71.8 11 -10 14
16:00 1020 30.12 849 25.07 22.5 72.5 11 -8.9 16
16:05 1020 30.12 849 25.07 22.4 72.3 11 -9.8 14.3
16:10 1020 30.12 849 25.07 22.3 72.2 11 -9.2 15.5
16:15 1020 30.12 849 25.07 21.5 70.7 12 -9.2 15.4
16:20 1020 30.12 849 25.07 22 71.6 11 -9.2 15.5
16:25 1020 30.12 849 25.07 22.5 72.5 11 -8.7 16.3
16:30 1020 30.12 849 25.07 22.5 72.4 11 -9 15.7
16:35 1020 30.12 849 25.07 22.5 72.4 12 -7.8 18
16:40 1020 30.12 849 25.07 22.4 72.4 10 -10.4 13.2
16:45 1020 30.12 849 25.07 21.6 70.9 11 -9.8 14.4
16:50 1020 30.12 849 25.07 21.8 71.2 11 -9.8 14.3
16:55 1020 30.12 849 25.07 22.2 72 11 -9.7 14.5
17:00 1020 30.12 849 25.07 22.5 72.5 11 -9.6 14.8
17:05 1020 30.12 849 25.07 22.7 72.8 10 -10.6 12.9
17:10 1019 30.09 849 25.07 21.7 71 11 -9.8 14.3
17:15 1019 30.09 849 25.07 22.4 72.2 11 -9.7 14.5
17:20 1019 30.09 849 25.07 22.7 72.9 11 -9.4 15.1
17:25 1019 30.09 849 25.07 22.5 72.4 11 -9.7 14.6
17:30 1019 30.09 848 25.04 21.9 71.4 11 -10.4 13.3
17:35 1019 30.09 848 25.04 21.2 70.1 11 -10.5 13.1
17:40 1019 30.09 848 25.04 21.6 71 11 -10 14.1
17:45 1019 30.09 848 25.04 21.4 70.5 11 -10 14
17:50 1019 30.09 848 25.04 22.1 71.7 11 -10.1 13.8
17:55 1019 30.09 848 25.04 22.5 72.5 11 -9.7 14.6
18:00 1019 30.09 848 25.04 22.3 72.2 11 -9 15.8
18:05 1019 30.09 848 25.04 22.3 72.2 11 -8.9 15.9
18:10 1019 30.09 848 25.04 22.3 72.1 12 -8.1 17.3
18:15 1019 30.09 848 25.04 21.6 70.9 13 -7.9 17.8
18:20 1019 30.09 848 25.04 21.6 70.9 13 -8.1 17.5
18:25 1019 30.09 848 25.04 22.2 72 12 -7.9 17.8
18:30 1018 30.06 848 25.04 21.6 70.9 13 -7.4 18.7
18:35 1018 30.06 848 25.04 21.3 70.4 13 -8.3 17.1
18:40 1018 30.06 848 25.04 21.7 71.1 13 -8 17.6
18:45 1018 30.06 847 25.01 21 69.8 13 -8.4 16.9
18:50 1018 30.06 847 25.01 21.3 70.3 12 -8.8 16.1
18:55 1018 30.06 847 25.01 21.8 71.3 12 -8.4 16.8
19:00 1018 30.06 847 25.01 22 71.6 13 -7.8 18
19:05 1018 30.06 847 25.01 21.8 71.2 12 -8.4 16.9
19:10 1018 30.06 847 25.01 20.6 69.1 13 -8.7 16.3
19:15 1018 30.06 847 25.01 20.2 68.3 13 -8.9 16
19:20 1018 30.06 847 25.01 20.1 68.2 13 -8.7 16.3
19:25 1018 30.06 847 25.01 20.1 68.3 13 -8.7 16.3
19:30 1018 30.06 847 25.01 20.2 68.4 14 -8.4 16.8
19:35 1018 30.06 847 25.01 20.2 68.3 13 -8.6 16.5
19:40 1018 30.06 847 25.01 20.4 68.7 13 -8.7 16.4
19:45 1018 30.06 847 25.01 21 69.7 13 -8.1 17.5
19:50 1018 30.06 847 25.01 21.1 70 13 -8.2 17.2
19:55 1018 30.06 847 25.01 21 69.9 13 -8 17.6
20:00 1018 30.06 847 25.01 20.2 68.4 14 -8.1 17.3
20:05 1018 30.06 847 25.01 19.9 67.7 14 -7.9 17.8
20:10 1018 30.06 847 25.01 19.7 67.5 14 -8.1 17.4
20:15 1018 30.06 847 25.01 19.6 67.2 15 -8 17.5
20:20 1018 30.06 847 25.01 19.6 67.3 15 -7.9 17.8
20:25 1017 30.03 847 25.01 19.5 67.2 15 -7.8 18
20:30 1017 30.03 847 25.01 19.4 67 15 -7.6 18.4
20:35 1017 30.03 847 25.01 19.3 66.8 15 -7.7 18.1
20:40 1017 30.03 847 25.01 19.2 66.6 15 -7.7 18.2
20:45 1017 30.03 847 25.01 19.1 66.4 16 -7.6 18.3
20:50 1017 30.03 847 25.01 18.8 65.8 18 -6.3 20.7
20:55 1017 30.03 847 25.01 18.5 65.2 18 -5.8 21.5
21:00 1017 30.03 847 25.01 18.2 64.8 20 -4.9 23.2
21:05 1017 30.03 847 25.01 17.8 64 23 -3.4 25.9
21:10 1017 30.03 847 25.01 16.7 62.1 30 -0.7 30.7
21:15 1017 30.03 847 25.01 15.5 59.8 30 -1.8 28.8
21:20 1018 30.06 847 25.01 15 59 33 -1.2 29.8
21:25 1018 30.06 847 25.01 14.6 58.3 30 -2.6 27.4
21:30 1018 30.06 847 25.01 14.7 58.4 29 -3.1 26.5
21:35 1018 30.06 847 25.01 14.8 58.6 30 -2.8 27
21:40 1018 30.06 847 25.01 14.8 58.7 29 -2.9 26.9
21:45 1018 30.06 847 25.01 14.9 58.7 29 -2.9 26.8
21:50 1018 30.06 847 25.01 14.6 58.2 30 -2.9 26.8
21:55 1018 30.06 847 25.01 14.5 58 31 -2.5 27.5
22:00 1018 30.06 847 25.01 14.3 57.8 32 -2 28.4
22:05 1018 30.06 847 25.01 14.5 58.1 34 -1.3 29.7
22:10 1018 30.06 847 25.01 14.8 58.6 34 -0.8 30.5
22:15 1018 30.06 847 25.01 14.7 58.5 35 -0.4 31.3
22:20 1018 30.06 847 25.01 14.5 58.1 37 0 32
22:25 1018 30.06 847 25.01 14.3 57.7 38 0.2 32.3
22:30 1018 30.06 847 25.01 14.2 57.6 38 0.2 32.4
22:35 1018 30.06 847 25.01 14.2 57.5 38 0.3 32.6
22:40 1018 30.06 847 25.01 14.1 57.4 39 0.4 32.8
22:45 1018 30.06 847 25.01 13.9 57.1 39 0.4 32.7
22:50 1018 30.06 847 25.01 13.9 57 38 0.1 32.1
22:55 1018 30.06 847 25.01 13.9 57.1 37 -0.3 31.5
23:00 1018 30.06 847 25.01 14 57.1 37 -0.3 31.5
23:05 1018 30.06 847 25.01 14 57.2 37 -0.5 31
23:10 1018 30.06 847 25.01 14 57.2 37 -0.5 31.1
23:15 1018 30.06 847 25.01 13.9 57.1 36 -0.7 30.8
23:20 1018 30.06 847 25.01 14 57.1 36 -0.7 30.7
23:25 1018 30.06 847 25.01 13.9 57.1 36 -0.9 30.4
23:30 1018 30.06 847 25.01 13.8 56.9 36 -0.8 30.5
23:35 1018 30.06 847 25.01 13.7 56.7 36 -1 30.3
23:40 1018 30.06 847 25.01 13.7 56.7 36 -0.9 30.4
23:45 1018 30.06 847 25.01 13.5 56.4 37 -0.8 30.5
23:50 1018 30.06 847 25.01 13.4 56.1 37 -0.8 30.5
23:55 1018 30.06 847 25.01 13.3 56 37 -1 30.2
24:00 1018 30.06 847 25.01 13.3 55.9 37 -1 30.2